sensor_id;sensor_type;location;lat;lon;timestamp;P1;durP1;ratioP1;P2;durP2;ratioP2
47167;SDS011;32931;47.778;17.806;2023-07-31T00:01:51;3.92;;;2.20;;
47167;SDS011;32931;47.778;17.806;2023-07-31T00:04:17;3.45;;;2.30;;
47167;SDS011;32931;47.778;17.806;2023-07-31T00:06:43;5.50;;;2.22;;
47167;SDS011;32931;47.778;17.806;2023-07-31T00:09:09;7.10;;;2.30;;
47167;SDS011;32931;47.778;17.806;2023-07-31T00:11:36;4.88;;;2.00;;
47167;SDS011;32931;47.778;17.806;2023-07-31T00:14:02;3.90;;;1.95;;
47167;SDS011;32931;47.778;17.806;2023-07-31T00:16:28;5.95;;;2.95;;
47167;SDS011;32931;47.778;17.806;2023-07-31T00:18:54;6.90;;;2.15;;
47167;SDS011;32931;47.778;17.806;2023-07-31T00:21:20;7.30;;;2.55;;
47167;SDS011;32931;47.778;17.806;2023-07-31T00:23:47;5.05;;;2.47;;
47167;SDS011;32931;47.778;17.806;2023-07-31T00:26:13;3.60;;;2.30;;
47167;SDS011;32931;47.778;17.806;2023-07-31T00:28:39;11.65;;;2.10;;
47167;SDS011;32931;47.778;17.806;2023-07-31T00:31:05;6.80;;;1.90;;
47167;SDS011;32931;47.778;17.806;2023-07-31T00:33:31;6.20;;;2.30;;
47167;SDS011;32931;47.778;17.806;2023-07-31T00:35:57;6.53;;;2.17;;
47167;SDS011;32931;47.778;17.806;2023-07-31T00:38:23;3.90;;;1.98;;
47167;SDS011;32931;47.778;17.806;2023-07-31T00:40:50;4.60;;;2.20;;
47167;SDS011;32931;47.778;17.806;2023-07-31T00:43:16;3.00;;;1.70;;
47167;SDS011;32931;47.778;17.806;2023-07-31T00:45:42;3.38;;;1.92;;
47167;SDS011;32931;47.778;17.806;2023-07-31T00:48:08;3.00;;;1.90;;
47167;SDS011;32931;47.778;17.806;2023-07-31T00:50:34;4.88;;;2.17;;
47167;SDS011;32931;47.778;17.806;2023-07-31T00:53:01;4.57;;;2.47;;
47167;SDS011;32931;47.778;17.806;2023-07-31T00:55:27;5.28;;;1.98;;
47167;SDS011;32931;47.778;17.806;2023-07-31T00:57:54;4.15;;;1.98;;
47167;SDS011;32931;47.778;17.806;2023-07-31T01:00:21;3.42;;;1.90;;
47167;SDS011;32931;47.778;17.806;2023-07-31T01:02:48;6.38;;;1.90;;
47167;SDS011;32931;47.778;17.806;2023-07-31T01:05:15;2.75;;;1.90;;
47167;SDS011;32931;47.778;17.806;2023-07-31T01:10:33;6.57;;;2.28;;
47167;SDS011;32931;47.778;17.806;2023-07-31T01:13:06;4.97;;;2.22;;
47167;SDS011;32931;47.778;17.806;2023-07-31T01:15:33;3.88;;;2.10;;
47167;SDS011;32931;47.778;17.806;2023-07-31T01:17:59;4.22;;;2.40;;
47167;SDS011;32931;47.778;17.806;2023-07-31T01:20:26;6.00;;;2.10;;
47167;SDS011;32931;47.778;17.806;2023-07-31T01:28:28;5.75;;;2.17;;
47167;SDS011;32931;47.778;17.806;2023-07-31T01:31:22;4.55;;;2.40;;
47167;SDS011;32931;47.778;17.806;2023-07-31T01:33:53;4.53;;;2.10;;
47167;SDS011;32931;47.778;17.806;2023-07-31T01:36:22;6.30;;;2.50;;
47167;SDS011;32931;47.778;17.806;2023-07-31T01:38:49;4.93;;;2.10;;
47167;SDS011;32931;47.778;17.806;2023-07-31T01:41:18;3.80;;;2.28;;
47167;SDS011;32931;47.778;17.806;2023-07-31T01:43:45;4.60;;;2.33;;
47167;SDS011;32931;47.778;17.806;2023-07-31T01:46:12;4.55;;;2.30;;
47167;SDS011;32931;47.778;17.806;2023-07-31T01:48:38;8.88;;;2.00;;
47167;SDS011;32931;47.778;17.806;2023-07-31T01:51:04;6.13;;;1.98;;
47167;SDS011;32931;47.778;17.806;2023-07-31T01:53:30;3.28;;;2.08;;
47167;SDS011;32931;47.778;17.806;2023-07-31T01:55:57;5.43;;;1.92;;
47167;SDS011;32931;47.778;17.806;2023-07-31T01:58:23;6.65;;;2.10;;
47167;SDS011;32931;47.778;17.806;2023-07-31T02:00:49;4.13;;;2.05;;
47167;SDS011;32931;47.778;17.806;2023-07-31T02:03:15;3.95;;;2.03;;
47167;SDS011;32931;47.778;17.806;2023-07-31T02:05:48;4.22;;;1.88;;
47167;SDS011;32931;47.778;17.806;2023-07-31T02:08:15;3.78;;;2.00;;
47167;SDS011;32931;47.778;17.806;2023-07-31T02:10:42;5.70;;;1.92;;
47167;SDS011;32931;47.778;17.806;2023-07-31T02:13:08;5.38;;;1.70;;
47167;SDS011;32931;47.778;17.806;2023-07-31T02:15:34;3.88;;;1.90;;
47167;SDS011;32931;47.778;17.806;2023-07-31T02:18:01;4.57;;;2.08;;
47167;SDS011;32931;47.778;17.806;2023-07-31T02:20:27;7.32;;;1.92;;
47167;SDS011;32931;47.778;17.806;2023-07-31T02:22:53;3.58;;;2.00;;
47167;SDS011;32931;47.778;17.806;2023-07-31T02:25:19;6.00;;;2.17;;
47167;SDS011;32931;47.778;17.806;2023-07-31T02:27:45;17.92;;;2.40;;
47167;SDS011;32931;47.778;17.806;2023-07-31T02:30:11;6.25;;;2.58;;
47167;SDS011;32931;47.778;17.806;2023-07-31T02:32:37;4.15;;;2.35;;
47167;SDS011;32931;47.778;17.806;2023-07-31T02:35:04;5.45;;;2.50;;
47167;SDS011;32931;47.778;17.806;2023-07-31T02:37:30;4.03;;;1.88;;
47167;SDS011;32931;47.778;17.806;2023-07-31T02:39:56;5.93;;;2.30;;
47167;SDS011;32931;47.778;17.806;2023-07-31T02:42:22;7.38;;;2.28;;
47167;SDS011;32931;47.778;17.806;2023-07-31T02:44:48;3.90;;;2.25;;
47167;SDS011;32931;47.778;17.806;2023-07-31T02:47:16;6.20;;;2.20;;
47167;SDS011;32931;47.778;17.806;2023-07-31T02:49:42;4.57;;;2.20;;
47167;SDS011;32931;47.778;17.806;2023-07-31T02:52:09;3.88;;;2.40;;
47167;SDS011;32931;47.778;17.806;2023-07-31T02:54:35;8.77;;;2.88;;
47167;SDS011;32931;47.778;17.806;2023-07-31T02:57:01;7.35;;;2.40;;
47167;SDS011;32931;47.778;17.806;2023-07-31T02:59:27;4.97;;;2.60;;
47167;SDS011;32931;47.778;17.806;2023-07-31T03:01:54;6.80;;;2.55;;
47167;SDS011;32931;47.778;17.806;2023-07-31T03:04:20;9.32;;;2.53;;
47167;SDS011;32931;47.778;17.806;2023-07-31T03:06:46;4.90;;;2.42;;
47167;SDS011;32931;47.778;17.806;2023-07-31T03:09:12;5.32;;;2.42;;
47167;SDS011;32931;47.778;17.806;2023-07-31T03:11:39;4.40;;;2.42;;
47167;SDS011;32931;47.778;17.806;2023-07-31T03:14:05;4.35;;;2.33;;
47167;SDS011;32931;47.778;17.806;2023-07-31T03:16:31;4.88;;;2.53;;
47167;SDS011;32931;47.778;17.806;2023-07-31T03:18:57;6.88;;;2.80;;
47167;SDS011;32931;47.778;17.806;2023-07-31T03:21:23;5.63;;;2.40;;
47167;SDS011;32931;47.778;17.806;2023-07-31T03:23:49;4.95;;;2.70;;
47167;SDS011;32931;47.778;17.806;2023-07-31T03:26:15;7.40;;;3.00;;
47167;SDS011;32931;47.778;17.806;2023-07-31T03:28:41;10.90;;;2.80;;
47167;SDS011;32931;47.778;17.806;2023-07-31T03:31:08;4.57;;;2.80;;
47167;SDS011;32931;47.778;17.806;2023-07-31T03:33:34;6.50;;;2.60;;
47167;SDS011;32931;47.778;17.806;2023-07-31T03:36:00;12.27;;;3.00;;
47167;SDS011;32931;47.778;17.806;2023-07-31T03:38:27;4.60;;;2.42;;
47167;SDS011;32931;47.778;17.806;2023-07-31T03:40:53;3.97;;;2.38;;
47167;SDS011;32931;47.778;17.806;2023-07-31T03:43:19;4.50;;;2.38;;
47167;SDS011;32931;47.778;17.806;2023-07-31T03:45:45;4.40;;;2.33;;
47167;SDS011;32931;47.778;17.806;2023-07-31T03:48:12;5.60;;;2.35;;
47167;SDS011;32931;47.778;17.806;2023-07-31T03:50:39;4.40;;;2.45;;
47167;SDS011;32931;47.778;17.806;2023-07-31T03:53:05;5.65;;;2.22;;
47167;SDS011;32931;47.778;17.806;2023-07-31T03:55:31;6.00;;;2.45;;
47167;SDS011;32931;47.778;17.806;2023-07-31T03:57:57;6.40;;;2.25;;
47167;SDS011;32931;47.778;17.806;2023-07-31T04:00:23;6.95;;;2.70;;
47167;SDS011;32931;47.778;17.806;2023-07-31T04:02:49;5.35;;;2.72;;
47167;SDS011;32931;47.778;17.806;2023-07-31T04:05:15;7.65;;;2.70;;
47167;SDS011;32931;47.778;17.806;2023-07-31T04:07:42;5.95;;;2.67;;
47167;SDS011;32931;47.778;17.806;2023-07-31T04:10:08;8.07;;;2.53;;
47167;SDS011;32931;47.778;17.806;2023-07-31T04:12:34;3.97;;;2.35;;
47167;SDS011;32931;47.778;17.806;2023-07-31T04:15:00;7.78;;;2.65;;
47167;SDS011;32931;47.778;17.806;2023-07-31T04:17:26;8.45;;;2.80;;
47167;SDS011;32931;47.778;17.806;2023-07-31T04:19:52;7.28;;;2.92;;
47167;SDS011;32931;47.778;17.806;2023-07-31T04:22:19;8.35;;;2.45;;
47167;SDS011;32931;47.778;17.806;2023-07-31T04:24:45;4.40;;;2.47;;
47167;SDS011;32931;47.778;17.806;2023-07-31T04:27:11;4.55;;;2.20;;
47167;SDS011;32931;47.778;17.806;2023-07-31T04:29:37;7.93;;;2.65;;
47167;SDS011;32931;47.778;17.806;2023-07-31T04:32:05;5.95;;;2.33;;
47167;SDS011;32931;47.778;17.806;2023-07-31T04:34:31;5.05;;;2.53;;
47167;SDS011;32931;47.778;17.806;2023-07-31T04:36:57;5.30;;;2.53;;
47167;SDS011;32931;47.778;17.806;2023-07-31T04:39:24;5.65;;;2.30;;
47167;SDS011;32931;47.778;17.806;2023-07-31T04:41:50;7.10;;;2.40;;
47167;SDS011;32931;47.778;17.806;2023-07-31T04:44:16;6.78;;;3.00;;
47167;SDS011;32931;47.778;17.806;2023-07-31T04:46:42;5.97;;;2.90;;
47167;SDS011;32931;47.778;17.806;2023-07-31T04:49:08;6.85;;;3.40;;
47167;SDS011;32931;47.778;17.806;2023-07-31T04:51:34;7.82;;;2.70;;
47167;SDS011;32931;47.778;17.806;2023-07-31T04:54:00;5.45;;;2.97;;
47167;SDS011;32931;47.778;17.806;2023-07-31T04:56:26;4.15;;;2.40;;
47167;SDS011;32931;47.778;17.806;2023-07-31T04:58:52;4.18;;;2.35;;
47167;SDS011;32931;47.778;17.806;2023-07-31T05:01:18;5.90;;;2.38;;
47167;SDS011;32931;47.778;17.806;2023-07-31T05:03:45;9.35;;;2.95;;
47167;SDS011;32931;47.778;17.806;2023-07-31T05:06:11;6.90;;;2.80;;
47167;SDS011;32931;47.778;17.806;2023-07-31T05:08:38;9.68;;;2.40;;
47167;SDS011;32931;47.778;17.806;2023-07-31T05:11:05;3.92;;;2.40;;
47167;SDS011;32931;47.778;17.806;2023-07-31T05:13:31;4.55;;;2.53;;
47167;SDS011;32931;47.778;17.806;2023-07-31T05:15:57;8.13;;;2.70;;
47167;SDS011;32931;47.778;17.806;2023-07-31T05:18:23;5.35;;;2.40;;
47167;SDS011;32931;47.778;17.806;2023-07-31T05:20:49;6.00;;;2.38;;
47167;SDS011;32931;47.778;17.806;2023-07-31T05:23:15;6.25;;;2.25;;
47167;SDS011;32931;47.778;17.806;2023-07-31T05:25:41;9.90;;;2.45;;
47167;SDS011;32931;47.778;17.806;2023-07-31T05:28:08;9.10;;;3.08;;
47167;SDS011;32931;47.778;17.806;2023-07-31T05:30:34;6.10;;;2.25;;
47167;SDS011;32931;47.778;17.806;2023-07-31T05:33:00;6.40;;;2.17;;
47167;SDS011;32931;47.778;17.806;2023-07-31T05:35:26;5.75;;;2.40;;
47167;SDS011;32931;47.778;17.806;2023-07-31T05:37:52;4.45;;;1.90;;
47167;SDS011;32931;47.778;17.806;2023-07-31T05:40:18;4.15;;;2.10;;
47167;SDS011;32931;47.778;17.806;2023-07-31T05:42:44;7.78;;;2.30;;
47167;SDS011;32931;47.778;17.806;2023-07-31T05:45:10;4.25;;;2.05;;
47167;SDS011;32931;47.778;17.806;2023-07-31T05:47:38;5.47;;;2.20;;
47167;SDS011;32931;47.778;17.806;2023-07-31T05:50:04;3.75;;;2.10;;
47167;SDS011;32931;47.778;17.806;2023-07-31T05:52:31;4.95;;;2.08;;
47167;SDS011;32931;47.778;17.806;2023-07-31T05:54:57;9.73;;;2.47;;
47167;SDS011;32931;47.778;17.806;2023-07-31T05:57:23;5.55;;;2.05;;
47167;SDS011;32931;47.778;17.806;2023-07-31T05:59:49;7.65;;;1.77;;
47167;SDS011;32931;47.778;17.806;2023-07-31T06:02:15;4.93;;;2.33;;
47167;SDS011;32931;47.778;17.806;2023-07-31T06:04:41;5.80;;;2.40;;
47167;SDS011;32931;47.778;17.806;2023-07-31T06:07:07;5.40;;;2.17;;
47167;SDS011;32931;47.778;17.806;2023-07-31T06:09:33;3.95;;;1.70;;
47167;SDS011;32931;47.778;17.806;2023-07-31T06:12:00;5.25;;;1.92;;
47167;SDS011;32931;47.778;17.806;2023-07-31T06:14:26;10.10;;;2.38;;
47167;SDS011;32931;47.778;17.806;2023-07-31T06:16:52;6.95;;;2.17;;
47167;SDS011;32931;47.778;17.806;2023-07-31T06:19:18;6.85;;;2.13;;
47167;SDS011;32931;47.778;17.806;2023-07-31T06:21:45;4.30;;;1.98;;
47167;SDS011;32931;47.778;17.806;2023-07-31T06:24:11;4.43;;;2.00;;
47167;SDS011;32931;47.778;17.806;2023-07-31T06:26:38;10.20;;;2.35;;
47167;SDS011;32931;47.778;17.806;2023-07-31T06:29:05;4.13;;;1.85;;
47167;SDS011;32931;47.778;17.806;2023-07-31T06:31:31;5.68;;;1.63;;
47167;SDS011;32931;47.778;17.806;2023-07-31T06:33:57;4.78;;;1.90;;
47167;SDS011;32931;47.778;17.806;2023-07-31T06:36:23;5.50;;;1.77;;
47167;SDS011;32931;47.778;17.806;2023-07-31T06:38:50;7.28;;;2.08;;
47167;SDS011;32931;47.778;17.806;2023-07-31T06:41:16;7.10;;;2.00;;
47167;SDS011;32931;47.778;17.806;2023-07-31T06:43:42;3.65;;;1.85;;
47167;SDS011;32931;47.778;17.806;2023-07-31T06:46:08;4.40;;;1.50;;
47167;SDS011;32931;47.778;17.806;2023-07-31T06:48:35;5.07;;;1.60;;
47167;SDS011;32931;47.778;17.806;2023-07-31T06:51:03;3.35;;;1.50;;
47167;SDS011;32931;47.778;17.806;2023-07-31T06:53:29;6.45;;;1.70;;
47167;SDS011;32931;47.778;17.806;2023-07-31T06:55:55;9.00;;;2.03;;
47167;SDS011;32931;47.778;17.806;2023-07-31T06:58:21;9.52;;;1.90;;
47167;SDS011;32931;47.778;17.806;2023-07-31T07:00:48;4.05;;;1.40;;
47167;SDS011;32931;47.778;17.806;2023-07-31T07:03:16;10.57;;;2.20;;
47167;SDS011;32931;47.778;17.806;2023-07-31T07:05:45;6.82;;;2.08;;
47167;SDS011;32931;47.778;17.806;2023-07-31T07:08:12;10.95;;;1.80;;
47167;SDS011;32931;47.778;17.806;2023-07-31T07:10:38;4.15;;;1.88;;
47167;SDS011;32931;47.778;17.806;2023-07-31T07:13:04;11.20;;;2.03;;
47167;SDS011;32931;47.778;17.806;2023-07-31T07:15:30;7.40;;;1.63;;
47167;SDS011;32931;47.778;17.806;2023-07-31T07:17:56;5.22;;;1.60;;
47167;SDS011;32931;47.778;17.806;2023-07-31T07:20:22;5.22;;;1.58;;
47167;SDS011;32931;47.778;17.806;2023-07-31T07:22:49;5.10;;;1.80;;
47167;SDS011;32931;47.778;17.806;2023-07-31T07:25:15;12.55;;;1.65;;
47167;SDS011;32931;47.778;17.806;2023-07-31T07:27:41;5.95;;;1.80;;
47167;SDS011;32931;47.778;17.806;2023-07-31T07:30:07;9.05;;;1.67;;
47167;SDS011;32931;47.778;17.806;2023-07-31T07:32:34;6.65;;;1.92;;
47167;SDS011;32931;47.778;17.806;2023-07-31T07:35:00;5.95;;;1.67;;
47167;SDS011;32931;47.778;17.806;2023-07-31T07:37:26;7.88;;;1.98;;
47167;SDS011;32931;47.778;17.806;2023-07-31T07:39:53;7.45;;;1.85;;
47167;SDS011;32931;47.778;17.806;2023-07-31T07:42:19;8.82;;;2.00;;
47167;SDS011;32931;47.778;17.806;2023-07-31T07:44:45;9.15;;;1.92;;
47167;SDS011;32931;47.778;17.806;2023-07-31T07:47:11;11.25;;;1.83;;
47167;SDS011;32931;47.778;17.806;2023-07-31T07:49:38;5.93;;;1.38;;
47167;SDS011;32931;47.778;17.806;2023-07-31T07:52:04;3.83;;;1.27;;
47167;SDS011;32931;47.778;17.806;2023-07-31T07:54:31;5.20;;;1.42;;
47167;SDS011;32931;47.778;17.806;2023-07-31T07:56:57;6.53;;;1.63;;
47167;SDS011;32931;47.778;17.806;2023-07-31T07:59:24;9.25;;;1.90;;
47167;SDS011;32931;47.778;17.806;2023-07-31T08:01:51;4.78;;;1.67;;
47167;SDS011;32931;47.778;17.806;2023-07-31T08:04:17;8.07;;;1.70;;
47167;SDS011;32931;47.778;17.806;2023-07-31T08:06:43;11.88;;;2.15;;
47167;SDS011;32931;47.778;17.806;2023-07-31T08:09:09;5.10;;;1.45;;
47167;SDS011;32931;47.778;17.806;2023-07-31T08:11:35;7.88;;;1.90;;
47167;SDS011;32931;47.778;17.806;2023-07-31T08:14:01;5.10;;;1.63;;
47167;SDS011;32931;47.778;17.806;2023-07-31T08:16:28;7.78;;;1.70;;
47167;SDS011;32931;47.778;17.806;2023-07-31T08:18:54;6.00;;;1.80;;
47167;SDS011;32931;47.778;17.806;2023-07-31T08:21:21;8.70;;;1.60;;
47167;SDS011;32931;47.778;17.806;2023-07-31T08:23:47;6.35;;;1.83;;
47167;SDS011;32931;47.778;17.806;2023-07-31T08:26:16;7.28;;;1.90;;
47167;SDS011;32931;47.778;17.806;2023-07-31T08:28:43;10.13;;;1.80;;
47167;SDS011;32931;47.778;17.806;2023-07-31T08:31:09;8.23;;;1.67;;
47167;SDS011;32931;47.778;17.806;2023-07-31T08:33:36;4.75;;;1.83;;
47167;SDS011;32931;47.778;17.806;2023-07-31T08:36:03;5.10;;;1.63;;
47167;SDS011;32931;47.778;17.806;2023-07-31T08:38:29;5.85;;;1.63;;
47167;SDS011;32931;47.778;17.806;2023-07-31T08:40:58;8.40;;;2.03;;
47167;SDS011;32931;47.778;17.806;2023-07-31T08:43:25;9.48;;;2.28;;
47167;SDS011;32931;47.778;17.806;2023-07-31T08:45:52;3.53;;;1.52;;
47167;SDS011;32931;47.778;17.806;2023-07-31T08:48:20;5.57;;;1.75;;
47167;SDS011;32931;47.778;17.806;2023-07-31T08:50:47;6.63;;;1.85;;
47167;SDS011;32931;47.778;17.806;2023-07-31T08:53:14;5.88;;;1.80;;
47167;SDS011;32931;47.778;17.806;2023-07-31T08:55:40;8.15;;;1.75;;
47167;SDS011;32931;47.778;17.806;2023-07-31T08:58:07;5.47;;;1.48;;
47167;SDS011;32931;47.778;17.806;2023-07-31T09:00:33;6.55;;;1.58;;
47167;SDS011;32931;47.778;17.806;2023-07-31T09:03:08;7.28;;;1.60;;
47167;SDS011;32931;47.778;17.806;2023-07-31T09:05:37;7.88;;;1.45;;
47167;SDS011;32931;47.778;17.806;2023-07-31T09:08:07;5.05;;;1.88;;
47167;SDS011;32931;47.778;17.806;2023-07-31T09:10:39;5.30;;;1.75;;
47167;SDS011;32931;47.778;17.806;2023-07-31T09:13:09;5.05;;;1.65;;
47167;SDS011;32931;47.778;17.806;2023-07-31T09:15:36;4.15;;;1.60;;
47167;SDS011;32931;47.778;17.806;2023-07-31T09:18:06;8.38;;;1.50;;
47167;SDS011;32931;47.778;17.806;2023-07-31T09:20:33;9.82;;;1.60;;
47167;SDS011;32931;47.778;17.806;2023-07-31T09:25:36;6.53;;;1.50;;
47167;SDS011;32931;47.778;17.806;2023-07-31T09:28:03;4.05;;;1.15;;
47167;SDS011;32931;47.778;17.806;2023-07-31T09:31:07;9.77;;;1.98;;
47167;SDS011;32931;47.778;17.806;2023-07-31T09:33:26;5.97;;;1.42;;
47167;SDS011;32931;47.778;17.806;2023-07-31T09:35:52;7.30;;;1.67;;
47167;SDS011;32931;47.778;17.806;2023-07-31T09:38:18;4.13;;;1.40;;
47167;SDS011;32931;47.778;17.806;2023-07-31T09:40:47;5.60;;;1.70;;
47167;SDS011;32931;47.778;17.806;2023-07-31T09:43:21;6.57;;;1.42;;
47167;SDS011;32931;47.778;17.806;2023-07-31T09:45:47;9.57;;;1.83;;
47167;SDS011;32931;47.778;17.806;2023-07-31T09:48:15;6.80;;;1.77;;
47167;SDS011;32931;47.778;17.806;2023-07-31T09:50:44;2.85;;;1.50;;
47167;SDS011;32931;47.778;17.806;2023-07-31T09:53:11;6.57;;;1.63;;
47167;SDS011;32931;47.778;17.806;2023-07-31T09:55:38;5.45;;;1.75;;
47167;SDS011;32931;47.778;17.806;2023-07-31T09:58:06;7.43;;;1.77;;
47167;SDS011;32931;47.778;17.806;2023-07-31T10:00:35;5.95;;;1.98;;
47167;SDS011;32931;47.778;17.806;2023-07-31T10:03:05;6.30;;;2.03;;
47167;SDS011;32931;47.778;17.806;2023-07-31T10:05:36;11.65;;;1.88;;
47167;SDS011;32931;47.778;17.806;2023-07-31T10:08:09;6.07;;;1.83;;
47167;SDS011;32931;47.778;17.806;2023-07-31T10:10:40;7.32;;;1.67;;
47167;SDS011;32931;47.778;17.806;2023-07-31T10:13:09;8.27;;;1.90;;
47167;SDS011;32931;47.778;17.806;2023-07-31T10:15:36;6.03;;;1.58;;
47167;SDS011;32931;47.778;17.806;2023-07-31T10:18:03;6.47;;;2.08;;
47167;SDS011;32931;47.778;17.806;2023-07-31T10:20:31;5.95;;;1.92;;
47167;SDS011;32931;47.778;17.806;2023-07-31T10:22:58;7.97;;;1.85;;
47167;SDS011;32931;47.778;17.806;2023-07-31T10:25:26;8.27;;;1.58;;
47167;SDS011;32931;47.778;17.806;2023-07-31T10:27:53;5.28;;;1.60;;
47167;SDS011;32931;47.778;17.806;2023-07-31T10:30:24;4.13;;;1.80;;
47167;SDS011;32931;47.778;17.806;2023-07-31T10:32:54;6.15;;;1.42;;
47167;SDS011;32931;47.778;17.806;2023-07-31T10:35:22;6.00;;;1.33;;
47167;SDS011;32931;47.778;17.806;2023-07-31T10:37:48;4.97;;;1.70;;
47167;SDS011;32931;47.778;17.806;2023-07-31T10:40:24;4.95;;;1.55;;
47167;SDS011;32931;47.778;17.806;2023-07-31T10:42:52;8.50;;;1.90;;
47167;SDS011;32931;47.778;17.806;2023-07-31T10:45:26;5.22;;;1.65;;
47167;SDS011;32931;47.778;17.806;2023-07-31T10:48:04;5.55;;;1.75;;
47167;SDS011;32931;47.778;17.806;2023-07-31T10:50:50;5.90;;;1.45;;
47167;SDS011;32931;47.778;17.806;2023-07-31T10:56:13;4.05;;;1.40;;
47167;SDS011;32931;47.778;17.806;2023-07-31T10:58:44;6.90;;;1.60;;
47167;SDS011;32931;47.778;17.806;2023-07-31T11:01:13;3.92;;;1.55;;
47167;SDS011;32931;47.778;17.806;2023-07-31T11:03:46;5.25;;;1.65;;
47167;SDS011;32931;47.778;17.806;2023-07-31T11:06:15;6.05;;;1.60;;
47167;SDS011;32931;47.778;17.806;2023-07-31T11:08:45;6.40;;;1.55;;
47167;SDS011;32931;47.778;17.806;2023-07-31T11:11:14;4.57;;;1.70;;
47167;SDS011;32931;47.778;17.806;2023-07-31T11:16:18;5.03;;;1.83;;
47167;SDS011;32931;47.778;17.806;2023-07-31T11:18:46;4.90;;;1.77;;
47167;SDS011;32931;47.778;17.806;2023-07-31T11:21:14;5.82;;;1.70;;
47167;SDS011;32931;47.778;17.806;2023-07-31T11:23:45;6.68;;;1.63;;
47167;SDS011;32931;47.778;17.806;2023-07-31T11:26:15;8.38;;;1.80;;
47167;SDS011;32931;47.778;17.806;2023-07-31T11:28:42;8.52;;;1.65;;
47167;SDS011;32931;47.778;17.806;2023-07-31T11:31:09;3.85;;;1.15;;
47167;SDS011;32931;47.778;17.806;2023-07-31T11:33:36;4.68;;;1.50;;
47167;SDS011;32931;47.778;17.806;2023-07-31T11:36:02;8.88;;;2.13;;
47167;SDS011;32931;47.778;17.806;2023-07-31T11:38:33;6.15;;;1.60;;
47167;SDS011;32931;47.778;17.806;2023-07-31T11:41:01;5.55;;;1.40;;
47167;SDS011;32931;47.778;17.806;2023-07-31T11:43:29;4.43;;;1.63;;
47167;SDS011;32931;47.778;17.806;2023-07-31T11:45:56;3.50;;;1.40;;
47167;SDS011;32931;47.778;17.806;2023-07-31T11:48:30;5.13;;;1.50;;
47167;SDS011;32931;47.778;17.806;2023-07-31T11:51:05;3.92;;;1.58;;
47167;SDS011;32931;47.778;17.806;2023-07-31T11:56:08;5.55;;;1.50;;
47167;SDS011;32931;47.778;17.806;2023-07-31T11:58:37;7.07;;;1.50;;
47167;SDS011;32931;47.778;17.806;2023-07-31T12:01:04;4.00;;;1.25;;
47167;SDS011;32931;47.778;17.806;2023-07-31T12:03:31;6.75;;;1.48;;
47167;SDS011;32931;47.778;17.806;2023-07-31T12:05:58;4.93;;;1.52;;
47167;SDS011;32931;47.778;17.806;2023-07-31T12:08:25;4.28;;;1.42;;
47167;SDS011;32931;47.778;17.806;2023-07-31T12:10:52;4.60;;;1.60;;
47167;SDS011;32931;47.778;17.806;2023-07-31T12:13:22;3.92;;;1.63;;
47167;SDS011;32931;47.778;17.806;2023-07-31T12:15:55;9.98;;;1.73;;
47167;SDS011;32931;47.778;17.806;2023-07-31T12:18:24;5.47;;;1.60;;
47167;SDS011;32931;47.778;17.806;2023-07-31T12:20:54;4.93;;;1.83;;
47167;SDS011;32931;47.778;17.806;2023-07-31T12:23:24;6.22;;;1.80;;
47167;SDS011;32931;47.778;17.806;2023-07-31T12:28:45;5.13;;;1.70;;
47167;SDS011;32931;47.778;17.806;2023-07-31T12:31:12;3.47;;;1.40;;
47167;SDS011;32931;47.778;17.806;2023-07-31T12:33:40;6.35;;;2.15;;
47167;SDS011;32931;47.778;17.806;2023-07-31T12:36:13;5.72;;;1.63;;
47167;SDS011;32931;47.778;17.806;2023-07-31T12:38:41;3.97;;;1.67;;
47167;SDS011;32931;47.778;17.806;2023-07-31T12:41:08;5.75;;;1.73;;
47167;SDS011;32931;47.778;17.806;2023-07-31T12:43:35;5.82;;;1.42;;
47167;SDS011;32931;47.778;17.806;2023-07-31T12:46:02;6.63;;;1.75;;
47167;SDS011;32931;47.778;17.806;2023-07-31T12:48:28;6.28;;;1.80;;
47167;SDS011;32931;47.778;17.806;2023-07-31T12:50:55;6.00;;;1.60;;
47167;SDS011;32931;47.778;17.806;2023-07-31T12:53:21;4.65;;;1.67;;
47167;SDS011;32931;47.778;17.806;2023-07-31T12:55:47;8.13;;;1.65;;
47167;SDS011;32931;47.778;17.806;2023-07-31T12:58:13;4.10;;;1.70;;
47167;SDS011;32931;47.778;17.806;2023-07-31T13:00:39;5.63;;;1.73;;
47167;SDS011;32931;47.778;17.806;2023-07-31T13:03:05;4.40;;;1.30;;
47167;SDS011;32931;47.778;17.806;2023-07-31T13:05:32;6.60;;;1.70;;
47167;SDS011;32931;47.778;17.806;2023-07-31T13:07:58;2.88;;;1.50;;
47167;SDS011;32931;47.778;17.806;2023-07-31T13:10:24;4.57;;;1.58;;
47167;SDS011;32931;47.778;17.806;2023-07-31T13:12:52;4.32;;;1.52;;
47167;SDS011;32931;47.778;17.806;2023-07-31T13:15:18;5.78;;;2.03;;
47167;SDS011;32931;47.778;17.806;2023-07-31T13:17:45;8.38;;;1.92;;
47167;SDS011;32931;47.778;17.806;2023-07-31T13:20:11;5.47;;;1.55;;
47167;SDS011;32931;47.778;17.806;2023-07-31T13:22:38;8.95;;;1.52;;
47167;SDS011;32931;47.778;17.806;2023-07-31T13:25:04;6.25;;;1.55;;
47167;SDS011;32931;47.778;17.806;2023-07-31T13:27:31;3.60;;;1.40;;
47167;SDS011;32931;47.778;17.806;2023-07-31T13:29:57;6.88;;;1.60;;
47167;SDS011;32931;47.778;17.806;2023-07-31T13:32:23;6.25;;;1.30;;
47167;SDS011;32931;47.778;17.806;2023-07-31T13:34:50;7.25;;;1.55;;
47167;SDS011;32931;47.778;17.806;2023-07-31T13:37:16;5.20;;;1.48;;
47167;SDS011;32931;47.778;17.806;2023-07-31T13:39:43;5.15;;;1.63;;
47167;SDS011;32931;47.778;17.806;2023-07-31T13:42:09;8.13;;;1.73;;
47167;SDS011;32931;47.778;17.806;2023-07-31T13:44:43;4.20;;;1.55;;
47167;SDS011;32931;47.778;17.806;2023-07-31T13:47:09;5.13;;;1.50;;
47167;SDS011;32931;47.778;17.806;2023-07-31T13:49:35;5.40;;;1.45;;
47167;SDS011;32931;47.778;17.806;2023-07-31T13:52:02;4.88;;;1.52;;
47167;SDS011;32931;47.778;17.806;2023-07-31T13:54:29;5.43;;;1.50;;
47167;SDS011;32931;47.778;17.806;2023-07-31T13:56:55;6.43;;;1.60;;
47167;SDS011;32931;47.778;17.806;2023-07-31T13:59:21;5.82;;;1.80;;
47167;SDS011;32931;47.778;17.806;2023-07-31T14:01:47;5.75;;;1.85;;
47167;SDS011;32931;47.778;17.806;2023-07-31T14:04:14;13.13;;;1.80;;
47167;SDS011;32931;47.778;17.806;2023-07-31T14:06:40;3.20;;;1.40;;
47167;SDS011;32931;47.778;17.806;2023-07-31T14:09:07;6.18;;;1.40;;
47167;SDS011;32931;47.778;17.806;2023-07-31T14:11:33;6.28;;;1.40;;
47167;SDS011;32931;47.778;17.806;2023-07-31T14:13:59;7.40;;;1.40;;
47167;SDS011;32931;47.778;17.806;2023-07-31T14:16:27;6.63;;;1.77;;
47167;SDS011;32931;47.778;17.806;2023-07-31T14:18:54;7.68;;;1.92;;
47167;SDS011;32931;47.778;17.806;2023-07-31T14:21:20;8.32;;;1.75;;
47167;SDS011;32931;47.778;17.806;2023-07-31T14:23:46;5.45;;;1.60;;
47167;SDS011;32931;47.778;17.806;2023-07-31T14:26:12;6.75;;;1.73;;
47167;SDS011;32931;47.778;17.806;2023-07-31T14:28:38;6.90;;;1.60;;
47167;SDS011;32931;47.778;17.806;2023-07-31T14:31:05;6.53;;;1.52;;
47167;SDS011;32931;47.778;17.806;2023-07-31T14:33:31;4.82;;;1.60;;
47167;SDS011;32931;47.778;17.806;2023-07-31T14:35:57;4.40;;;1.50;;
47167;SDS011;32931;47.778;17.806;2023-07-31T14:38:23;4.05;;;1.50;;
47167;SDS011;32931;47.778;17.806;2023-07-31T14:40:49;5.97;;;1.48;;
47167;SDS011;32931;47.778;17.806;2023-07-31T14:43:16;7.47;;;1.35;;
47167;SDS011;32931;47.778;17.806;2023-07-31T14:45:42;7.10;;;1.50;;
47167;SDS011;32931;47.778;17.806;2023-07-31T14:48:08;6.40;;;1.58;;
47167;SDS011;32931;47.778;17.806;2023-07-31T14:50:34;3.75;;;1.38;;
47167;SDS011;32931;47.778;17.806;2023-07-31T14:53:00;9.23;;;1.50;;
47167;SDS011;32931;47.778;17.806;2023-07-31T14:55:26;6.78;;;1.70;;